Time;durP1;ratioP1;P1;durP2;ratioP2;P2;SDS_P1;SDS_P2;PMS_P1;PMS_P2;Temp;Humidity;BMP_temperature;BMP_pressure;BME280_temperature;BME280_humidity;BME280_pressure;Samples;Min_cycle;Max_cycle;Signal;HPM_P1;HPM_P2
2021/09/22 00:02:16;;;;;;;3.78;2.33;;;;;;;16.18;76.27;102313.56;5090061;28;20044;-78
2021/09/22 00:04:44;;;;;;;7.93;2.30;;;;;;;16.14;76.59;102306.22;5089116;28;20039;-79
2021/09/22 00:07:11;;;;;;;2.40;1.83;;;;;;;16.03;76.79;102300.25;5089521;28;20044;-78
2021/09/22 00:09:38;;;;;;;8.07;2.10;;;;;;;15.95;77.02;102292.75;5089332;28;20040;-78
2021/09/22 00:12:05;;;;;;;6.13;1.83;;;;;;;15.92;76.79;102290.66;5085339;28;20399;-78
2021/09/22 00:14:31;;;;;;;1.95;1.63;;;;;;;15.92;76.81;102287.03;5088277;28;20067;-78
2021/09/22 00:16:58;;;;;;;3.55;1.73;;;;;;;15.94;76.80;102290.31;5088400;28;20105;-78
2021/09/22 00:19:25;;;;;;;7.53;1.83;;;;;;;15.94;76.58;102285.53;5088198;28;20052;-78
2021/09/22 00:21:52;;;;;;;3.85;1.70;;;;;;;15.94;76.80;102284.75;5077869;28;20046;-78
2021/09/22 00:24:18;;;;;;;2.97;1.48;;;;;;;15.86;76.79;102288.44;5090586;28;20070;-78
2021/09/22 00:26:45;;;;;;;2.63;1.40;;;;;;;15.83;76.67;102282.34;5090040;28;20070;-78
2021/09/22 00:29:12;;;;;;;2.50;1.60;;;;;;;15.89;76.65;102293.31;5089523;28;20043;-78
2021/09/22 00:31:39;;;;;;;5.55;1.88;;;;;;;15.86;76.67;102296.81;5089473;28;20052;-78
2021/09/22 00:34:06;;;;;;;2.38;1.55;;;;;;;15.77;76.98;102296.88;5089095;28;20109;-78
2021/09/22 00:36:33;;;;;;;3.50;1.60;;;;;;;15.78;76.79;102292.91;5089966;28;20238;-78
2021/09/22 00:38:59;;;;;;;3.60;1.33;;;;;;;15.83;76.53;102292.72;5088102;28;20048;-78
2021/09/22 00:41:26;;;;;;;4.07;1.67;;;;;;;15.80;76.35;102285.03;5089871;28;20044;-78
2021/09/22 00:43:53;;;;;;;1.73;1.52;;;;;;;15.76;76.43;102289.66;5089119;28;20399;-78
2021/09/22 00:46:20;;;;;;;6.53;2.05;;;;;;;15.77;76.48;102285.72;5083869;28;20040;-78
2021/09/22 00:48:47;;;;;;;2.90;1.65;;;;;;;15.79;76.46;102294.56;5086655;28;20401;-78
2021/09/22 00:51:14;;;;;;;5.93;1.70;;;;;;;15.77;76.42;102292.13;5089254;28;20445;-78
2021/09/22 00:53:41;;;;;;;3.25;1.35;;;;;;;15.74;76.32;102294.78;5090515;28;20093;-78
2021/09/22 00:56:08;;;;;;;2.65;1.48;;;;;;;15.72;76.50;102288.72;5089717;28;20046;-78
2021/09/22 00:58:34;;;;;;;5.15;1.60;;;;;;;15.71;76.40;102295.47;5089265;28;20463;-78
2021/09/22 01:01:02;;;;;;;3.55;1.33;;;;;;;15.74;76.13;102294.78;5088952;28;20073;-78
2021/09/22 01:03:30;;;;;;;2.08;1.25;;;;;;;15.78;76.20;102292.91;5088109;28;20507;-78
2021/09/22 01:06:00;;;;;;;3.90;1.67;;;;;;;15.82;76.33;102299.47;5088874;28;20036;-78
2021/09/22 01:08:31;;;;;;;6.68;1.52;;;;;;;15.77;76.32;102288.50;5088888;28;20036;-78
2021/09/22 01:10:59;;;;;;;2.35;1.33;;;;;;;15.78;76.35;102293.75;5088720;28;20036;-78
2021/09/22 01:13:27;;;;;;;2.88;1.13;;;;;;;15.80;76.32;102285.03;5089726;28;20044;-78
2021/09/22 01:15:53;;;;;;;4.10;1.17;;;;;;;15.82;76.08;102291.09;5088169;28;20134;-79
2021/09/22 01:18:23;;;;;;;2.45;1.77;;;;;;;15.82;76.31;102288.28;5087959;28;20460;-78
2021/09/22 01:20:55;;;;;;;3.78;2.13;;;;;;;15.81;76.38;102289.44;5088501;28;20028;-78
2021/09/22 01:23:24;;;;;;;1.77;1.10;;;;;;;15.79;76.38;102283.41;5087615;28;20048;-78
2021/09/22 01:25:52;;;;;;;5.25;1.50;;;;;;;15.82;76.25;102282.72;5089326;28;20043;-78
2021/09/22 01:28:22;;;;;;;4.20;1.25;;;;;;;15.83;76.33;102282.34;5088185;28;20052;-78
2021/09/22 01:30:49;;;;;;;2.13;1.25;;;;;;;15.80;76.55;102279.44;5086509;28;20061;-79
2021/09/22 01:33:17;;;;;;;3.03;1.08;;;;;;;15.78;76.64;102267.78;5087057;28;20401;-78
2021/09/22 01:35:46;;;;;;;4.53;1.55;;;;;;;15.82;76.74;102271.53;5102873;28;20464;-78
2021/09/22 01:38:19;;;;;;;1.33;1.08;;;;;;;15.86;76.51;102272.47;5087384;28;20047;-78
2021/09/22 01:41:04;;;;;;;3.03;1.90;;;;;;;15.87;76.86;102268.53;5087857;28;20042;-78
2021/09/22 01:43:32;;;;;;;5.80;1.67;;;;;;;15.87;76.75;102271.31;5089224;28;20036;-78
2021/09/22 01:46:01;;;;;;;3.35;1.25;;;;;;;15.86;76.88;102255.72;5092213;28;20062;-78
2021/09/22 01:48:28;;;;;;;2.15;1.98;;;;;;;15.87;76.76;102256.53;5089056;28;20059;-78
2021/09/22 01:50:56;;;;;;;4.13;1.40;;;;;;;15.84;77.00;102253.28;5086619;28;20168;-79
2021/09/22 01:53:23;;;;;;;10.80;1.70;;;;;;;15.84;76.97;102258.03;5089848;28;20055;-78
2021/09/22 01:55:55;;;;;;;5.80;2.10;;;;;;;15.83;77.22;102248.06;5088561;28;20032;-78
2021/09/22 01:58:22;;;;;;;3.80;1.67;;;;;;;15.82;77.31;102244.44;5104067;28;20475;-78
2021/09/22 02:00:50;;;;;;;7.30;2.20;;;;;;;15.79;77.39;102233.13;5103740;28;20048;-79
2021/09/22 02:03:16;;;;;;;3.03;2.10;;;;;;;15.74;77.43;102236.97;5089524;28;20048;-78
2021/09/22 02:05:45;;;;;;;4.30;2.08;;;;;;;15.73;77.65;102240.06;5088877;28;20040;-78
2021/09/22 02:08:12;;;;;;;6.72;2.17;;;;;;;15.69;77.55;102233.56;5088251;28;20067;-78
2021/09/22 02:10:39;;;;;;;3.35;3.00;;;;;;;15.72;77.40;102244.06;5089723;28;20721;-78
2021/09/22 02:13:06;;;;;;;2.63;2.40;;;;;;;15.73;77.34;102237.28;5088980;28;20040;-78
2021/09/22 02:15:33;;;;;;;3.53;2.22;;;;;;;15.72;77.30;102232.88;5089307;28;20445;-78
2021/09/22 02:18:00;;;;;;;5.70;3.35;;;;;;;15.70;77.25;102229.63;5070586;28;20044;-78
2021/09/22 02:20:27;;;;;;;3.45;2.75;;;;;;;15.70;77.42;102224.03;5089269;28;20044;-78
2021/09/22 02:22:53;;;;;;;10.57;3.13;;;;;;;15.67;77.40;102219.13;5088785;28;20046;-78
2021/09/22 02:25:21;;;;;;;6.15;3.03;;;;;;;15.68;77.54;102223.53;5089529;28;20130;-78
2021/09/22 02:27:48;;;;;;;5.28;2.50;;;;;;;15.70;77.21;102222.03;5089055;28;20436;-78
2021/09/22 02:30:18;;;;;;;8.70;3.13;;;;;;;15.69;77.16;102205.66;5089722;28;20090;-78
2021/09/22 02:32:45;;;;;;;3.67;2.90;;;;;;;15.68;76.89;102204.81;5088269;28;20043;-78
2021/09/22 02:35:13;;;;;;;3.40;2.72;;;;;;;15.68;76.98;102195.63;5089215;28;20056;-78
2021/09/22 02:37:40;;;;;;;7.07;3.47;;;;;;;15.66;76.95;102201.56;5088707;28;20044;-78
2021/09/22 02:40:12;;;;;;;6.38;2.33;;;;;;;15.67;76.98;102196.81;5089769;28;20044;-77
2021/09/22 02:42:40;;;;;;;4.15;2.53;;;;;;;15.70;76.92;102190.53;5087194;28;20439;-78
2021/09/22 02:45:09;;;;;;;6.18;2.50;;;;;;;15.66;76.62;102190.41;5088914;28;20044;-78
2021/09/22 02:47:35;;;;;;;3.80;2.22;;;;;;;15.66;76.73;102195.97;5085960;28;20047;-78
2021/09/22 02:50:03;;;;;;;5.25;2.35;;;;;;;15.62;76.63;102183.84;5088075;28;20131;-78
2021/09/22 02:52:29;;;;;;;5.28;2.00;;;;;;;15.63;76.59;102185.50;5089578;28;20043;-78
2021/09/22 02:54:56;;;;;;;5.05;2.45;;;;;;;15.65;76.54;102182.34;5088171;28;20050;-78
2021/09/22 02:57:23;;;;;;;2.10;1.70;;;;;;;15.64;76.46;102180.72;5084966;28;20058;-78
2021/09/22 02:59:49;;;;;;;4.18;2.28;;;;;;;15.64;76.55;102180.72;5089573;28;20114;-78
2021/09/22 03:02:16;;;;;;;3.67;2.00;;;;;;;15.66;76.26;102172.81;5088536;28;20059;-78
2021/09/22 03:04:43;;;;;;;2.70;1.60;;;;;;;15.62;76.26;102172.69;5088863;28;20044;-78
2021/09/22 03:07:10;;;;;;;3.78;2.10;;;;;;;15.61;75.97;102164.66;5086898;28;20040;-78
2021/09/22 03:09:37;;;;;;;2.63;1.52;;;;;;;15.60;76.00;102179.78;5070856;28;20067;-78
2021/09/22 03:12:05;;;;;;;7.40;1.92;;;;;;;15.60;75.98;102163.84;5088740;28;20452;-79
2021/09/22 03:14:31;;;;;;;5.00;2.67;;;;;;;15.62;75.79;102174.69;5088869;28;20484;-79
2021/09/22 03:16:58;;;;;;;2.75;1.40;;;;;;;15.63;75.71;102167.94;5088072;28;20044;-78
2021/09/22 03:19:25;;;;;;;2.53;1.67;;;;;;;15.65;75.67;102165.59;5083930;28;20058;-79
2021/09/22 03:21:52;;;;;;;2.08;1.83;;;;;;;15.65;75.72;102160.00;5087906;28;20043;-78
2021/09/22 03:24:18;;;;;;;3.83;1.63;;;;;;;15.65;75.59;102171.19;5088364;28;20066;-78
2021/09/22 03:26:45;;;;;;;4.38;1.90;;;;;;;15.63;75.73;102167.94;5087651;28;21945;-78
2021/09/22 03:29:12;;;;;;;8.73;2.20;;;;;;;15.64;75.30;102163.97;5070380;28;20047;-78
2021/09/22 03:31:41;;;;;;;11.60;2.97;;;;;;;15.62;75.60;102172.69;5087275;28;20423;-78
2021/09/22 03:34:07;;;;;;;3.38;1.80;;;;;;;15.61;75.68;102170.25;5087931;28;20044;-78
2021/09/22 03:36:34;;;;;;;3.42;1.60;;;;;;;15.61;75.54;102164.66;5086415;28;20052;-78
2021/09/22 03:39:02;;;;;;;3.58;1.48;;;;;;;15.61;75.21;102156.28;5082172;28;20040;-78
2021/09/22 03:41:30;;;;;;;2.95;1.15;;;;;;;15.62;74.98;102155.16;5087267;28;20446;-78
2021/09/22 03:43:56;;;;;;;2.97;1.23;;;;;;;15.60;74.90;102158.25;5087933;28;20126;-78
2021/09/22 03:46:23;;;;;;;2.05;1.35;;;;;;;15.63;74.78;102148.38;5087428;28;20044;-78
2021/09/22 03:48:50;;;;;;;1.85;1.30;;;;;;;15.60;74.77;102152.69;5087423;28;20051;-78
2021/09/22 03:51:16;;;;;;;3.53;1.35;;;;;;;15.57;74.65;102152.53;5069444;28;20051;-78
2021/09/22 03:53:43;;;;;;;2.10;1.40;;;;;;;15.59;74.63;102147.47;5087747;28;20467;-78
2021/09/22 03:56:10;;;;;;;3.20;1.02;;;;;;;15.62;74.66;102152.34;5085833;28;20040;-78
2021/09/22 03:58:37;;;;;;;3.13;1.38;;;;;;;15.63;74.67;102153.97;5087598;28;20047;-79
2021/09/22 04:01:04;;;;;;;2.20;1.17;;;;;;;15.64;74.45;102150.84;5087709;28;20114;-78
2021/09/22 04:03:31;;;;;;;3.13;1.63;;;;;;;15.60;74.54;102149.88;5087551;28;20047;-78
2021/09/22 04:05:58;;;;;;;2.92;1.27;;;;;;;15.62;74.27;102147.56;5083756;28;20040;-78
2021/09/22 04:08:25;;;;;;;3.88;1.17;;;;;;;15.61;74.15;102145.13;5088218;28;20044;-78
2021/09/22 04:10:51;;;;;;;4.20;1.90;;;;;;;15.61;74.20;102145.13;5086048;28;20499;-78
2021/09/22 04:13:18;;;;;;;1.33;1.05;;;;;;;15.62;74.12;102143.97;5085704;28;20050;-78
2021/09/22 04:15:45;;;;;;;3.83;1.17;;;;;;;15.62;74.13;102143.97;5085590;28;20040;-78
2021/09/22 04:18:12;;;;;;;2.75;1.42;;;;;;;15.60;73.96;102141.50;5087108;28;20127;-78
2021/09/22 04:20:38;;;;;;;1.40;1.30;;;;;;;15.58;74.13;102143.84;5086220;28;20476;-78
2021/09/22 04:23:05;;;;;;;2.92;1.02;;;;;;;15.58;74.27;102148.59;5085942;28;20047;-78
2021/09/22 04:25:32;;;;;;;2.20;0.95;;;;;;;15.56;74.44;102151.75;5087697;28;20043;-79
2021/09/22 04:27:59;;;;;;;2.28;1.38;;;;;;;15.51;74.57;102148.38;5085685;28;20063;-78
2021/09/22 04:30:25;;;;;;;2.42;0.90;;;;;;;15.49;74.56;102139.53;5085878;28;20052;-78
2021/09/22 04:32:52;;;;;;;4.72;1.45;;;;;;;15.47;74.67;102141.81;5087078;28;20059;-78
2021/09/22 04:35:19;;;;;;;1.92;0.80;;;;;;;15.39;74.77;102134.31;5086326;28;20139;-78
2021/09/22 04:37:47;;;;;;;3.33;1.25;;;;;;;15.39;74.82;102140.72;5085983;28;20044;-78
2021/09/22 04:40:15;;;;;;;4.95;1.50;;;;;;;15.41;74.68;102143.19;5088308;28;20036;-78
2021/09/22 04:42:42;;;;;;;1.38;1.17;;;;;;;15.35;74.75;102144.56;5086790;28;20118;-78
2021/09/22 04:45:09;;;;;;;5.85;0.90;;;;;;;15.37;74.78;102154.22;5086930;28;20040;-78
2021/09/22 04:47:37;;;;;;;3.63;1.17;;;;;;;15.38;74.74;102143.88;5085719;28;20098;-78
2021/09/22 04:50:07;;;;;;;3.05;1.08;;;;;;;15.33;74.70;102141.31;5085118;28;20557;-79
2021/09/22 04:52:33;;;;;;;2.45;1.13;;;;;;;15.27;74.76;102140.69;5084682;28;20052;-78
2021/09/22 04:55:00;;;;;;;3.38;0.82;;;;;;;15.24;74.86;102150.56;5083623;28;20055;-78
2021/09/22 04:57:27;;;;;;;1.55;0.80;;;;;;;15.22;74.70;102146.50;5084718;28;20439;-78
2021/09/22 04:59:53;;;;;;;4.82;1.55;;;;;;;15.21;74.58;102156.81;5085136;28;20040;-78
2021/09/22 05:02:20;;;;;;;6.68;1.08;;;;;;;15.20;74.83;102148.78;5087572;28;20511;-78
2021/09/22 05:04:48;;;;;;;2.47;1.10;;;;;;;15.19;74.88;102153.56;5085204;28;20118;-78
2021/09/22 05:07:14;;;;;;;2.53;1.17;;;;;;;15.19;74.82;102145.19;5086373;28;20051;-78
2021/09/22 05:09:41;;;;;;;2.50;0.63;;;;;;;15.19;75.06;102145.19;5085166;28;20071;-78
2021/09/22 05:12:08;;;;;;;2.78;0.88;;;;;;;15.17;74.29;102144.72;5086814;28;20040;-78
2021/09/22 05:14:35;;;;;;;3.42;0.77;;;;;;;15.20;74.43;102137.63;5085794;28;20052;-79
2021/09/22 05:17:02;;;;;;;5.18;1.00;;;;;;;15.22;74.44;102141.69;5086673;28;20070;-78
2021/09/22 05:19:28;;;;;;;4.65;1.00;;;;;;;15.21;74.30;102145.66;5090826;28;20167;-78
2021/09/22 05:21:55;;;;;;;3.03;0.90;;;;;;;15.19;74.46;102142.41;5090418;28;20435;-78
2021/09/22 05:24:22;;;;;;;1.98;0.82;;;;;;;15.16;74.53;102140.31;5090220;28;20044;-78
2021/09/22 05:26:49;;;;;;;1.90;0.70;;;;;;;15.17;74.43;102136.34;5091089;28;20097;-78
2021/09/22 05:29:16;;;;;;;2.88;1.17;;;;;;;15.19;74.45;102120.09;5090118;28;20048;-78
2021/09/22 05:31:43;;;;;;;3.22;1.00;;;;;;;15.20;74.41;102130.06;5088245;28;20151;-78
2021/09/22 05:34:10;;;;;;;2.55;1.20;;;;;;;15.21;74.34;102134.50;5089746;28;20044;-78
2021/09/22 05:36:37;;;;;;;3.55;0.95;;;;;;;15.20;74.21;102132.88;5090326;28;20535;-79
2021/09/22 05:39:05;;;;;;;2.42;1.05;;;;;;;15.19;74.32;102136.84;5082324;28;20054;-78
2021/09/22 05:41:32;;;;;;;2.33;1.45;;;;;;;15.20;74.21;102132.88;5090209;28;20040;-78
2021/09/22 05:43:59;;;;;;;3.92;1.02;;;;;;;15.20;73.97;102118.91;5090892;28;20082;-78
2021/09/22 05:46:26;;;;;;;1.88;0.98;;;;;;;15.18;73.94;102124.03;5089425;28;20044;-78
2021/09/22 05:48:53;;;;;;;5.93;0.95;;;;;;;15.12;73.86;102105.88;5087952;28;20395;-78
2021/09/22 05:51:20;;;;;;;2.05;0.80;;;;;;;15.04;73.67;102095.59;5090509;28;20044;-78
2021/09/22 05:53:48;;;;;;;1.23;0.70;;;;;;;14.99;73.64;102104.19;5089918;28;20449;-78
2021/09/22 05:56:15;;;;;;;3.65;1.00;;;;;;;14.94;73.63;102109.97;5089633;28;20488;-78
2021/09/22 05:58:41;;;;;;;3.42;0.98;;;;;;;14.89;73.54;102118.56;5087808;28;20047;-78
2021/09/22 06:01:08;;;;;;;3.03;0.80;;;;;;;14.87;73.43;102118.09;5090129;28;20039;-78
2021/09/22 06:03:36;;;;;;;3.22;1.08;;;;;;;14.84;73.45;102117.94;5088951;28;20039;-78
2021/09/22 06:06:03;;;;;;;3.30;1.52;;;;;;;14.82;73.54;102120.25;5090441;28;20610;-78
2021/09/22 06:08:30;;;;;;;1.48;0.80;;;;;;;14.82;73.38;102112.72;5087612;28;20044;-78
2021/09/22 06:10:57;;;;;;;4.25;0.80;;;;;;;14.81;73.29;102113.88;5089546;28;20040;-78
2021/09/22 06:13:25;;;;;;;2.13;0.85;;;;;;;14.79;73.23;102107.81;5090157;28;20097;-78
2021/09/22 06:15:52;;;;;;;4.55;0.70;;;;;;;14.75;73.25;102104.06;5089012;28;20059;-78
2021/09/22 06:18:23;;;;;;;1.33;0.50;;;;;;;14.73;73.17;102106.38;5088783;28;20495;-79
2021/09/22 06:20:50;;;;;;;2.65;0.90;;;;;;;14.70;73.34;102101.47;5087743;28;20043;-78
2021/09/22 06:23:16;;;;;;;2.03;0.45;;;;;;;14.70;73.37;102112.63;5088936;28;20050;-80
2021/09/22 06:25:44;;;;;;;1.67;1.00;;;;;;;14.72;73.17;102110.31;5063232;28;20051;-78
2021/09/22 06:28:11;;;;;;;8.02;0.68;;;;;;;14.73;73.13;102114.75;5088383;28;20047;-78
2021/09/22 06:30:37;;;;;;;3.53;0.80;;;;;;;14.74;73.09;102110.81;5088053;28;20044;-79
2021/09/22 06:33:04;;;;;;;3.88;0.95;;;;;;;14.72;73.10;102103.94;5089197;28;20040;-79
2021/09/22 06:35:31;;;;;;;1.35;0.57;;;;;;;14.74;72.97;102101.63;5090176;28;20586;-78
2021/09/22 06:37:58;;;;;;;4.25;1.08;;;;;;;14.75;72.87;102108.81;5089475;28;20039;-78
2021/09/22 06:40:25;;;;;;;2.92;1.17;;;;;;;14.78;72.72;102108.13;5089395;28;20044;-79
2021/09/22 06:42:52;;;;;;;5.63;1.13;;;;;;;14.78;72.64;102103.38;5086358;28;20051;-78
2021/09/22 06:45:22;;;;;;;3.40;0.70;;;;;;;14.80;72.51;102112.22;5089723;28;20058;-77
2021/09/22 06:47:51;;;;;;;2.03;0.60;;;;;;;14.81;72.55;102104.69;5089408;28;20039;-78
2021/09/22 06:50:19;;;;;;;3.10;0.98;;;;;;;14.84;72.48;102099.25;5088403;28;20048;-78
2021/09/22 06:52:46;;;;;;;5.45;1.27;;;;;;;14.90;72.34;102097.06;5088404;28;20127;-78
2021/09/22 06:55:13;;;;;;;6.05;0.70;;;;;;;14.92;72.18;102103.94;5091913;28;20043;-79
2021/09/22 06:57:39;;;;;;;5.50;1.10;;;;;;;14.97;72.04;102083.38;5088809;28;20043;-79
2021/09/22 07:00:10;;;;;;;4.22;0.80;;;;;;;15.01;71.77;102089.91;5087743;28;20134;-78
2021/09/22 07:02:38;;;;;;;5.38;1.08;;;;;;;15.03;71.64;102099.56;5087258;28;20063;-78
2021/09/22 07:05:07;;;;;;;6.80;0.93;;;;;;;15.09;71.62;102087.03;5088844;28;20040;-79
2021/09/22 07:07:34;;;;;;;1.45;0.75;;;;;;;15.16;71.48;102101.25;5087829;28;20044;-78
2021/09/22 07:10:01;;;;;;;2.28;0.82;;;;;;;15.20;71.09;102095.78;5090047;28;20281;-78
2021/09/22 07:12:28;;;;;;;2.97;0.85;;;;;;;15.26;71.23;102100.00;5087694;28;20488;-79
2021/09/22 07:14:55;;;;;;;1.58;0.70;;;;;;;15.29;71.01;102098.47;5077092;28;20048;-79
2021/09/22 07:17:22;;;;;;;2.22;0.93;;;;;;;15.33;70.99;102096.66;5085308;28;20426;-78
2021/09/22 07:19:49;;;;;;;2.92;0.70;;;;;;;15.35;70.62;102108.28;5087714;28;20502;-79
2021/09/22 07:22:15;;;;;;;4.20;1.30;;;;;;;15.36;70.34;102102.34;5080529;28;20081;-79
2021/09/22 07:24:43;;;;;;;2.35;0.90;;;;;;;15.34;70.47;102106.63;5088891;28;20488;-79
2021/09/22 07:27:10;;;;;;;2.75;0.90;;;;;;;15.33;70.30;102102.22;5087840;28;20497;-79
2021/09/22 07:29:36;;;;;;;3.90;0.73;;;;;;;15.37;70.27;102097.56;5088682;28;20032;-78
2021/09/22 07:32:06;;;;;;;2.03;0.80;;;;;;;15.38;70.18;102093.63;5087768;28;20118;-78
2021/09/22 07:34:34;;;;;;;3.00;1.02;;;;;;;15.38;70.04;102091.63;5087842;28;20127;-79
2021/09/22 07:37:10;;;;;;;4.20;1.20;;;;;;;15.38;69.99;102096.44;5087828;28;20039;-79
2021/09/22 07:39:39;;;;;;;5.30;1.45;;;;;;;15.40;69.65;102096.91;5087959;28;20044;-80
2021/09/22 07:42:12;;;;;;;3.30;1.10;;;;;;;15.42;69.79;102094.56;5087402;28;20048;-78
2021/09/22 07:44:40;;;;;;;2.33;0.80;;;;;;;15.46;69.65;102101.13;5088431;28;20082;-82
2021/09/22 07:47:08;;;;;;;3.90;0.95;;;;;;;15.52;69.70;102097.75;5085970;28;20050;-79
2021/09/22 07:49:35;;;;;;;2.45;0.82;;;;;;;15.57;69.51;102099.50;5065108;28;20694;-84
2021/09/22 07:52:03;;;;;;;1.95;0.80;;;;;;;15.64;69.60;102102.56;5085903;28;20052;-79
2021/09/22 07:54:29;;;;;;;3.80;0.85;;;;;;;15.70;69.49;102096.38;5087552;28;20165;-79
2021/09/22 07:56:56;;;;;;;3.95;1.20;;;;;;;15.74;69.03;102090.94;5086073;28;20032;-79
2021/09/22 07:59:23;;;;;;;5.50;1.10;;;;;;;15.77;68.79;102104.22;5086846;28;20036;-78
2021/09/22 08:01:49;;;;;;;7.03;1.15;;;;;;;15.77;68.78;102101.41;5085331;28;20036;-78
2021/09/22 08:04:16;;;;;;;6.05;0.98;;;;;;;15.82;68.88;102103.97;5086952;28;20048;-78
2021/09/22 08:06:43;;;;;;;6.75;2.55;;;;;;;15.92;68.76;102106.31;5089242;28;20047;-79
2021/09/22 08:09:10;;;;;;;5.32;1.00;;;;;;;16.01;68.63;102087.47;5082550;28;20528;-78
2021/09/22 08:11:37;;;;;;;2.92;1.02;;;;;;;16.08;68.59;102096.06;5085837;28;20050;-79
2021/09/22 08:14:04;;;;;;;3.30;1.00;;;;;;;16.11;68.30;102095.38;5087599;28;20087;-78
2021/09/22 08:16:31;;;;;;;4.20;0.90;;;;;;;16.12;68.13;102090.59;5087556;28;20040;-79
2021/09/22 08:18:57;;;;;;;8.55;1.73;;;;;;;16.13;68.05;102098.63;5086720;28;20043;-78
2021/09/22 08:21:24;;;;;;;3.72;0.70;;;;;;;16.22;67.82;102106.88;5087340;28;20057;-77
2021/09/22 08:23:51;;;;;;;6.63;0.75;;;;;;;16.25;67.72;102084.66;5085641;28;20480;-77
2021/09/22 08:26:21;;;;;;;2.70;0.70;;;;;;;16.25;67.53;102090.25;5085326;28;20043;-76
2021/09/22 08:28:48;;;;;;;2.70;0.77;;;;;;;16.28;67.58;102097.91;5082790;28;20067;-80
2021/09/22 08:31:14;;;;;;;2.25;0.70;;;;;;;16.30;67.29;102097.56;5087224;28;20436;-78
2021/09/22 08:33:41;;;;;;;3.95;0.90;;;;;;;16.32;67.22;102089.63;5087530;28;20048;-78
2021/09/22 08:36:08;;;;;;;3.63;1.02;;;;;;;16.36;67.26;102091.38;5087749;28;20060;-80
2021/09/22 08:38:36;;;;;;;4.20;1.02;;;;;;;16.41;67.10;102091.13;5084855;28;20126;-78
2021/09/22 08:41:02;;;;;;;3.53;1.02;;;;;;;16.46;66.89;102084.50;5086268;28;20138;-78
2021/09/22 08:43:30;;;;;;;3.40;1.08;;;;;;;16.57;67.49;102082.06;5087268;28;20117;-78
2021/09/22 08:45:57;;;;;;;3.30;0.70;;;;;;;16.67;67.49;102081.56;5066005;28;20040;-78
2021/09/22 08:48:25;;;;;;;1.58;0.75;;;;;;;16.78;67.87;102074.31;5082961;28;20059;-78
2021/09/22 08:50:55;;;;;;;3.03;0.63;;;;;;;16.91;67.88;102071.13;5085516;28;20051;-78
2021/09/22 08:53:22;;;;;;;3.85;0.90;;;;;;;17.05;68.28;102074.28;5087525;28;20046;-78
2021/09/22 08:55:50;;;;;;;3.35;0.70;;;;;;;17.17;68.18;102069.81;5088873;28;20071;-79
2021/09/22 08:58:17;;;;;;;2.15;1.00;;;;;;;17.33;68.37;102068.69;5090548;28;20051;-78
2021/09/22 09:00:45;;;;;;;2.75;0.45;;;;;;;17.49;68.36;102072.31;5087424;28;20044;-78
2021/09/22 09:03:33;;;;;;;3.20;0.60;;;;;;;17.81;64.39;102061.13;5089843;28;20071;-78
2021/09/22 09:06:23;;;;;;;1.75;0.85;;;;;;;18.20;66.56;102055.28;5097558;27;20407;-78
2021/09/22 09:08:54;;;;;;;2.17;0.45;;;;;;;18.72;66.67;102060.47;5090905;28;20055;-79
2021/09/22 09:11:29;;;;;;;2.57;0.77;;;;;;;19.45;64.40;102051.13;5091518;28;20044;-78
2021/09/22 09:13:58;;;;;;;3.22;0.50;;;;;;;20.30;62.96;102055.34;5088048;28;20075;-79
2021/09/22 09:16:39;;;;;;;2.97;0.50;;;;;;;21.01;58.90;102043.81;5088596;28;20075;-76
2021/09/22 09:19:13;;;;;;;3.10;0.63;;;;;;;21.61;55.03;102057.72;5089695;28;20032;-76
2021/09/22 09:22:03;;;;;;;3.45;0.45;;;;;;;22.12;53.66;102058.56;5087808;28;20123;-77
2021/09/22 09:24:37;;;;;;;2.65;0.75;;;;;;;22.52;53.99;102060.44;5086827;28;20506;-78
2021/09/22 09:27:26;;;;;;;2.20;0.60;;;;;;;22.99;53.50;102067.94;5091114;28;20054;-79
2021/09/22 09:29:55;;;;;;;2.47;0.60;;;;;;;23.24;52.56;102046.22;5084288;28;20079;-79
2021/09/22 09:32:25;;;;;;;3.22;0.43;;;;;;;23.32;51.35;102053.50;5090944;28;20044;-79
2021/09/22 09:34:58;;;;;;;5.95;0.68;;;;;;;23.61;49.18;102049.53;5090935;28;20041;-79
2021/09/22 09:37:35;;;;;;;4.68;0.60;;;;;;;23.79;47.63;102043.06;5088518;28;20537;-79
2021/09/22 09:40:24;;;;;;;3.30;0.50;;;;;;;23.97;47.65;102055.16;5088258;28;20069;-78
2021/09/22 09:43:02;;;;;;;2.47;0.60;;;;;;;23.91;46.29;102053.94;5091907;28;20067;-78
2021/09/22 09:45:36;;;;;;;1.90;0.50;;;;;;;23.94;47.59;102044.66;5090757;28;20127;-78
2021/09/22 09:48:15;;;;;;;5.15;0.65;;;;;;;24.07;47.19;102040.19;5088548;28;20039;-78
2021/09/22 09:50:44;;;;;;;15.38;0.80;;;;;;;24.11;47.74;102039.03;5071629;28;20040;-78
2021/09/22 09:53:34;;;;;;;4.65;0.75;;;;;;;24.38;46.36;102036.53;5088106;28;20047;-78
2021/09/22 09:56:01;;;;;;;4.68;0.60;;;;;;;24.43;47.31;102043.81;5086423;28;20036;-79
2021/09/22 09:58:50;;;;;;;4.32;0.65;;;;;;;24.44;46.76;102042.56;5090407;28;20035;-78
2021/09/22 10:01:17;;;;;;;1.75;0.40;;;;;;;24.40;46.76;102034.09;5088799;28;20051;-78
2021/09/22 10:03:46;;;;;;;4.57;1.00;;;;;;;24.52;46.41;102025.16;5089026;28;20044;-78
2021/09/22 10:06:14;;;;;;;2.70;0.70;;;;;;;24.48;46.21;102018.72;5087698;28;20515;-79
2021/09/22 10:08:41;;;;;;;3.08;0.63;;;;;;;24.52;46.08;102019.50;5088530;28;20046;-79
2021/09/22 10:11:07;;;;;;;8.07;1.48;;;;;;;24.48;46.14;102017.91;5087625;28;20507;-79
2021/09/22 10:13:37;;;;;;;1.58;0.63;;;;;;;24.65;45.31;102000.81;5087376;28;20180;-79
2021/09/22 10:16:04;;;;;;;0.70;0.50;;;;;;;24.59;45.72;102007.34;5089364;28;20040;-79
2021/09/22 10:18:32;;;;;;;3.55;0.45;;;;;;;24.56;45.58;102005.34;5087727;28;20032;-79
2021/09/22 10:21:01;;;;;;;3.20;0.80;;;;;;;24.55;45.30;102009.38;5088931;28;20122;-79
2021/09/22 10:23:28;;;;;;;2.33;0.52;;;;;;;24.46;45.38;102000.53;5101027;27;20082;-78
2021/09/22 10:25:55;;;;;;;3.10;0.70;;;;;;;24.32;45.27;101998.53;5089394;28;20044;-79
2021/09/22 10:28:36;;;;;;;1.75;0.82;;;;;;;24.30;44.97;101994.50;5087821;28;20081;-79
2021/09/22 10:31:35;;;;;;;3.22;0.60;;;;;;;24.40;45.06;101991.63;5083828;28;20043;-79
2021/09/22 10:34:03;;;;;;;2.50;0.57;;;;;;;24.52;45.47;101996.03;5086244;28;20044;-78
2021/09/22 10:36:42;;;;;;;2.80;0.80;;;;;;;24.25;44.80;101992.09;5086620;28;20072;-78
2021/09/22 10:39:23;;;;;;;3.80;0.82;;;;;;;24.11;45.23;101995.78;5086752;28;20040;-78
2021/09/22 10:41:50;;;;;;;0.80;0.60;;;;;;;24.12;45.71;101988.88;5088991;28;20642;-78
2021/09/22 10:44:37;;;;;;;4.93;0.70;;;;;;;24.08;45.39;101982.41;5087676;28;20284;-78
2021/09/22 10:47:20;;;;;;;2.38;0.68;;;;;;;23.93;45.55;101998.63;5085955;28;20048;-78
2021/09/22 10:49:47;;;;;;;4.50;1.20;;;;;;;23.74;46.41;101995.38;5088336;28;20062;-78
2021/09/22 10:52:35;;;;;;;2.58;0.57;;;;;;;23.45;46.65;101984.09;5089257;28;20032;-78
2021/09/22 10:55:08;;;;;;;4.20;0.80;;;;;;;23.09;47.02;101979.56;5084290;28;20039;-78
2021/09/22 10:57:36;;;;;;;3.00;0.80;;;;;;;22.97;47.79;101975.13;5088193;28;20528;-79
2021/09/22 11:00:10;;;;;;;3.35;0.60;;;;;;;22.86;47.98;101970.66;5089597;28;20036;-78
2021/09/22 11:02:43;;;;;;;3.75;1.38;;;;;;;22.55;48.52;101965.69;5087540;28;20242;-78
2021/09/22 11:05:13;;;;;;;1.42;0.63;;;;;;;22.14;49.06;101974.34;5086676;28;20823;-78
2021/09/22 11:07:52;;;;;;;1.98;0.63;;;;;;;21.91;50.24;101968.19;5088738;28;20051;-79
2021/09/22 11:10:50;;;;;;;1.85;0.65;;;;;;;21.82;50.66;101971.31;5089158;28;20089;-78
2021/09/22 11:13:21;;;;;;;3.10;0.80;;;;;;;21.65;50.48;101963.56;5086366;28;20079;-77
2021/09/22 11:15:50;;;;;;;3.83;1.00;;;;;;;21.53;50.77;101957.38;5086567;28;20040;-77
2021/09/22 11:18:22;;;;;;;3.00;0.55;;;;;;;21.45;51.33;101959.34;5088979;28;20093;-77
2021/09/22 11:20:56;;;;;;;1.52;0.50;;;;;;;21.17;51.95;101961.94;5087076;28;20033;-77
2021/09/22 11:23:26;;;;;;;2.95;0.60;;;;;;;20.93;52.54;101952.00;5088514;28;20176;-77
2021/09/22 11:25:53;;;;;;;8.30;0.70;;;;;;;20.93;52.63;101962.44;5088081;28;20526;-77
2021/09/22 11:28:20;;;;;;;3.17;0.50;;;;;;;20.96;52.89;101956.88;5086939;28;20134;-77
2021/09/22 11:30:54;;;;;;;5.18;0.93;;;;;;;21.01;52.83;101959.34;5088309;28;20404;-77
2021/09/22 11:33:23;;;;;;;3.22;0.63;;;;;;;20.97;53.28;101947.22;5087275;28;20044;-77